Hugo Giraldo

Olheiro-Chefe - Independiente Medellin
14 Out 2027
Quinta-feira
Processo

Personalidade

Adaptabilidade (19) Ambição (13) Controvérsia (15) Lealdade (10) Pressão (5) Profissionalismo (7) Espírito Esportivo (4) Temperamento (15)

Perfil

Estilo de Treinamento Democrático
Licença Continental B
Determinação 9
Gestão de Pessoas 6
Motivação 10
Disciplina 11
Satisfação no Trabalho
100%
Fadiga
0%
Função Olheiro-Chefe
Salário 96.9K p/s
Contrato 14.03.2028

Desempenho

Comportamento Bom
Eficácia do Treinamento
31%
Desenvolvimento do Jogador
65%
Prevenção de Lesões
20%
Implementação Tática
40%

Eventos Recentes

Participou de uma reunião de recrutamento agora
Recomendou um alvo de transferência agora
Recomendou um alvo de transferência agora
Recomendou um alvo de transferência agora
Recomendou um alvo de transferência 7d atrás
Recomendou um alvo de transferência 7d atrás
Recomendou um alvo de transferência 7d atrás
Participou de uma reunião de recrutamento 7d atrás

Monitorando agora

273
Jogador Clube Status Habilidade Confiança Observado Última observação Último voto
Diego Martínez Jaguares Ativo 124 / 124 44% 2 / 2m 21.07.2027 -
Kevin Tamayo Leones Ativo 119 / 120 79% 1 28.06.2027 Aprovar
Kwadwo Baah Watford Ativo 134 / 141 40% 2 26.06.2027 -
Marcus Edwards Burnley Ativo 141 / 132 40% 2 26.06.2027 -
Guille Rosas Gijón Ativo 147 / 141 40% 1 26.06.2027 -
Riley McGree Middlesbrough Ativo 135 / 142 40% 2 22.06.2027 -
Mohamed-Ali Cho Hull City Ativo 141 / 129 40% 2 22.06.2027 -
Andre Brooks Sheffield United Ativo 133 / 132 40% 1 22.06.2027 -
Luis Vázquez Birmingham Ativo 129 / 117 40% 1 15.06.2027 -
Nicolò Zaniolo Udinese Ativo 144 / 155 40% 1 15.06.2027 -
Murphy Cooper Plymouth Argyle Ativo 123 / 123 40% 1 08.06.2027 -
Federico Pereira Estudiantes Negociando 135 / 135 68% 1 01.06.2027 Aprovar
Facundo Torres LOSC Lille Ativo 134 / 134 67% 1 01.06.2027 Aprovar
Bitello SC Freiburg Ativo 135 / 135 68% 1 01.06.2027 Aprovar
Kostantis Tzolakis Hull City Ativo 149 / 142 40% 7 29.05.2027 -
Michele Cerofolini Bari Ativo 122 / 132 40% 4 29.05.2027 -
Maduka Okoye Udinese Ativo 144 / 154 40% 1 29.05.2027 -
Christian Walton Ipswich Town Ativo 132 / 141 40% 4 28.05.2027 -
Jonathan Klinsmann Cesena Ativo 122 / 113 40% 2 28.05.2027 -
Robin Roefs Sunderland Ativo 140 / 154 40% 2 27.05.2027 -
Lucas Bruera Carabobo Ativo 120 / 122 40% 1 27.05.2027 -
Arijanet Murić Sassuolo Ativo 137 / 132 40% 3 26.05.2027 -
Balázs Tóth Blackburn Rovers Ativo 127 / 117 40% 3 26.05.2027 -
Luis Ingolotti Atlético Tucumán Ativo 124 / 125 40% 1 26.05.2027 -
Mauro Silveira Junior Ativo 124 / 128 40% 1 25.05.2027 -
Bento Al-Nassr Ativo 139 / 130 40% 5 24.05.2027 -
Lorenzo Palmisani Frosinone Ativo 130 / 122 40% 4 24.05.2027 -
Caoimhin Kelleher Brentford Ativo 156 / 151 40% 4 23.05.2027 -
Mads Hermansen West Ham United Ativo 138 / 139 40% 3 23.05.2027 -
Diego Romero Universitario Ativo 129 / 134 40% 1 23.05.2027 -
Tomáš Frühwald Bohemians 1905 Ativo 109 / 116 40% 1 23.05.2027 -
Nikola Vasilj Al-Diriyah Ativo 141 / 137 40% 2 20.05.2027 -
Jean America de Cali Ativo 127 / 120 40% 1 20.05.2027 -
Simone Scuffet Pisa Ativo 124 / 140 40% 3 18.05.2027 -
Daniel Iversen Preston Ativo 123 / 134 40% 3 16.05.2027 -
Ezequiel Centurión River Plate Ativo 128 / 121 40% 1 16.05.2027 -
Tomás Marchiori Vélez Ativo 127 / 129 40% 2 15.05.2027 -
Edoardo Motta Lazio Ativo 127 / 133 40% 1 15.05.2027 -
Justin Bijlow Genoa Ativo 155 / 157 40% 3 13.05.2027 -
Facundo Cambeses Racing Club Ativo 128 / 124 40% 1 12.05.2027 -
Grégoire Coudert Burnley Ativo 131 / 117 40% 1 11.05.2027 -
Amine Adli Bournemouth Ativo 145 / 156 40% 5 10.05.2027 Observar
Jacob Widell Zetterström Derby County Ativo 134 / 124 40% 1 10.05.2027 -
Iván Arboleda Sarmiento Ativo 127 / 121 40% 1 10.05.2027 -
Derensili Sanches Fernandes Huddersfield Town Ativo 125 / 129 40% 6 06.05.2027 -
Hany Mukhtar Spezia Perdido 145 / 132 40% 2 06.05.2027 -
Welington Southampton Ativo 132 / 115 40% 4 06.05.2027 -
Lewis Morgan SuperSport United Ativo 128 / 124 40% 11 05.05.2027 -
Giorgi Chakvetadze Watford Ativo 122 / 117 40% 2 05.05.2027 -
Hílder Arboleda Union Magdalena Ativo 86 / 89 30% 1 / 1m 05.05.2027 -
Harry Wilson Leeds United Ativo 139 / 130 40% 4 04.05.2027 -
David Turnbull Cardiff City Ativo 122 / 133 40% 1 03.05.2027 -
Ryoya Morishita Blackburn Rovers Ativo 132 / 117 40% 4 02.05.2027 -
Aaron Collins Milton Keynes Dons Ativo 120 / 124 40% 1 02.05.2027 -
Morgan Whittaker Middlesbrough Ativo 134 / 132 40% 1 02.05.2027 -
Kerem Aktürkoğlu Fenerbahce Ativo 144 / 130 40% 3 30.04.2027 -
Filippo Manfrin Arzignano Ativo 106 / 99 40% 2 30.04.2027 -
Davide Mastrantonio Latina Ativo 91 / 92 40% 1 30.04.2027 -
Oleksandr Saputin Poltava Ativo 113 / 128 40% 1 30.04.2027 -
Kevin Fulham Ativo 145 / 162 40% 3 28.04.2027 -
Tom Fellows Southampton Ativo 130 / 134 40% 6 28.04.2027 -
Mikkel Damsgaard Brentford Ativo 147 / 132 40% 3 28.04.2027 -
Giacomo Raspadori Atalanta Ativo 153 / 138 40% 2 28.04.2027 -
Egil Selvik Watford Ativo 126 / 124 40% 1 28.04.2027 -
Isaac Price West Bromwich Albion Ativo 125 / 141 40% 1 28.04.2027 -
Ali Ahmed Norwich City Ativo 117 / 130 40% 3 23.04.2027 -
Jack McGlynn Stoke City Ativo 135 / 131 40% 1 23.04.2027 -
Marco Asensio Fenerbahce Ativo 165 / 168 40% 5 22.04.2027 -
Carlos Alcaraz Everton Ativo 148 / 143 40% 2 22.04.2027 -
Felix Kyei Medeama Ativo 89 / 84 40% 2 22.04.2027 -
Valerio Boffelli Cavese Ativo 98 / 107 40% 2 22.04.2027 -
Facundo Vila Estudiantes Ativo 101 / 99 40% 1 21.04.2027 -
Assane Diao Lazio Ativo 139 / 146 40% 2 19.04.2027 -
Scott Twine Bristol City Ativo 132 / 114 40% 2 18.04.2027 -
Jack Rudoni Coventry City Ativo 128 / 130 40% 1 18.04.2027 -
Isaiah Jones Luton Town Ativo 127 / 130 40% 4 17.04.2027 -
Nordi Mukiele Sunderland Ativo 152 / 140 40% 1 16.04.2027 -
Ianis Hagi Alanyaspor Ativo 125 / 113 40% 1 15.04.2027 -
Zian Flemming Ipswich Town Ativo 130 / 138 40% 1 14.04.2027 -
James Trafford Leeds United Ativo 150 / 145 40% 2 12.04.2027 -
Kiernan Dewsbury-Hall Everton Ativo 144 / 151 40% 1 12.04.2027 -
Alexander Nübel Besiktas Ativo 141 / 144 40% 1 12.04.2027 -
Ortwin De Wolf KV Mechelen Ativo 122 / 106 40% 1 11.04.2027 -
Deniz Ertaş Konyaspor Ativo 116 / 135 40% 1 11.04.2027 -
Adrien Truffert Bournemouth Ativo 158 / 140 40% 2 10.04.2027 -
Mats Wieffer Brighton Ativo 156 / 161 40% 1 08.04.2027 -
Leroy Sané Galatasaray Ativo 160 / 161 40% 4 04.04.2027 -
Sorba Thomas Stoke City Ativo 140 / 120 40% 3 03.04.2027 -
Carlos Vicente Birmingham Ativo 139 / 139 40% 3 02.04.2027 -
Finn Azaz Southampton Ativo 131 / 134 40% 2 01.04.2027 -
Léo Scienza Southampton Ativo 133 / 151 40% 2 31.03.2027 -
Kwame Poku Queens Park Rangers Ativo 120 / 118 40% 3 31.03.2027 -
Wladimiro Falcone Lecce Ativo 142 / 131 40% 4 31.03.2027 -
Dean Henderson Crystal Palace Ativo 144 / 138 40% 1 31.03.2027 -
Nikita Haikin Standard Liege Ativo 132 / 142 40% 1 30.03.2027 -
Razvan Balasa Crvena Zvezda Ativo 156 / 145 40% 5 28.03.2027 -
Adam Wharton Crystal Palace Ativo 159 / 153 40% 2 27.03.2027 -
Nicolò Cambiaghi Bologna Ativo 144 / 134 40% 1 27.03.2027 -
David Brooks Bournemouth Ativo 142 / 138 40% 2 25.03.2027 -
Georges-Kévin Nkoudou Al-Diriyah Ativo 128 / 130 40% 1 25.03.2027 -
Ryan Sessegnon Fulham Ativo 141 / 148 40% 1 24.03.2027 -
Manor Solomon West Ham United Ativo 139 / 150 40% 1 24.03.2027 -
Stanley Mills Oxford United Ativo 116 / 129 40% 2 21.03.2027 -
Félix Lemaréchal Club Brugge Ativo 141 / 143 40% 5 21.03.2027 -
Georginio Rutter Brighton Ativo 142 / 135 40% 4 20.03.2027 -
Marko Ilić Westerlo Ativo 122 / 129 40% 2 19.03.2027 -
Max O'Leary West Bromwich Albion Ativo 122 / 138 40% 1 19.03.2027 -
Othmane Maamma Watford Ativo 127 / 142 40% 3 18.03.2027 -
Kyrylo Fesiun Shakhtar Ativo 116 / 137 40% 2 17.03.2027 -
Alex Meret Napoli Ativo 162 / 165 40% 1 16.03.2027 -
Santiago Silva CFR Cluj Ativo 117 / 119 40% 1 16.03.2027 -
Yusuke Matsuo Esteghlal Ativo 121 / 111 40% 4 13.03.2027 -
Borja Sainz Fiorentina Ativo 155 / 141 40% 3 13.03.2027 -
Eduardo Armenta Ufa Ativo 99 / 91 40% 1 12.03.2027 -
Radek Vítek Middlesbrough Ativo 129 / 131 40% 2 09.03.2027 -
Jamie Cumming Oxford United Ativo 132 / 113 40% 1 08.03.2027 -
Leon Bailey Olympiacos Ativo 151 / 129 40% 4 05.03.2027 -
Max Bird Birmingham Ativo 127 / 118 40% 1 04.03.2027 -
Jan Koutný Sigma Olomouc Ativo 112 / 116 40% 1 02.03.2027 -
Fedor Lapoukhov CSKA Sofia Ativo 124 / 130 40% 1 02.03.2027 -
Mduduzi Shabalala Kaizer Chiefs Ativo 116 / 100 40% 2 25.02.2027 -
Adriano Bertaccini Anderlecht Ativo 123 / 108 40% 1 25.02.2027 -
Juan David Guillén Real Santander Ativo 94 / 99 52% 1 / 1m 24.02.2027 -
Marquinhos Spartak Moscow Ativo 135 / 143 40% 6 23.02.2027 -
Matt O'Riley Brighton Ativo 152 / 156 40% 2 22.02.2027 -
Marcelo Allende Mamelodi Sundowns Ativo 128 / 130 40% 6 16.02.2027 -
Tyrese Campbell Sheffield United Ativo 136 / 124 40% 1 16.02.2027 -
Bertrand Traoré Sunderland Ativo 136 / 136 40% 2 14.02.2027 -
Beau Reus Waasland-Beveren Ativo 133 / 128 40% 1 14.02.2027 -
Óscar Mingueza Crystal Palace Ativo 147 / 158 40% 1 11.02.2027 -
Zack Steffen Spartak Moscow Ativo 126 / 128 40% 1 10.02.2027 -
Maílson Al-Taawoun Ativo 133 / 114 40% 1 10.02.2027 -
Nahuel Ulariaga Hapoel Beer Sheva Ativo 125 / 109 40% 3 06.02.2027 -
Tshepang Moremi Orlando Pirates Ativo 116 / 124 40% 3 06.02.2027 -
Oston O'runov Persepolis Ativo 127 / 132 40% 1 06.02.2027 -
Jhon Jhon Zenit Ativo 129 / 137 40% 1 04.02.2027 -
Nicolas Schmid Portsmouth Ativo 129 / 136 40% 1 04.02.2027 -
Michael Cooper Sheffield United Ativo 130 / 125 40% 1 02.02.2027 -
Hélio Varela Maccabi Tel Aviv Ativo 121 / 114 40% 1 02.02.2027 -
Callum Hudson-Odoi Nottingham Forest Ativo 156 / 149 40% 1 24.01.2027 -
Ilias Sebaoui Sint-Truiden Ativo 127 / 140 40% 1 24.01.2027 -
Oswin Appollis Orlando Pirates Ativo 119 / 113 40% 1 22.01.2027 -
Filip Marschall Stevenage Ativo 118 / 120 40% 1 22.01.2027 -
Francesco D'Alterio Ternana Ativo 111 / 123 40% 1 22.01.2027 -
Mykyta Turbaievskyi Zorya Ativo 109 / 125 40% 1 22.01.2027 -
Cesare Galeotti Trapani Ativo 105 / 122 40% 1 21.01.2027 -
Tomáš Ladra Viktoria Plzen Ativo 118 / 111 40% 1 19.01.2027 -
Kenny Tete Fulham Ativo 150 / 130 40% 1 19.01.2027 -
Rubén Duarte Legia Ativo 130 / 129 40% 2 16.01.2027 -
Louie Barry Sheffield Wednesday Ativo 115 / 116 40% 1 16.01.2027 -
Sayfallah Ltaief Cracovia Ativo 121 / 120 40% 1 16.01.2027 -
Ilias Chair Queens Park Rangers Ativo 125 / 129 40% 1 14.01.2027 -
Christian Nørgaard Everton Ativo 139 / 137 40% 1 10.01.2027 -
Mauro Arambarri River Plate Ativo 156 / 154 40% 1 06.01.2027 -
Heorhii Yermakov Metalist Ativo 109 / 131 40% 1 05.01.2027 -
Juan Pablo Gallego Dibba Ativo 108 / 104 40% 2 03.01.2027 -
Tiago Palacios Estudiantes Ativo 125 / 129 40% 2 02.01.2027 -
Alan Lescano Argentinos Juniors Ativo 133 / 136 40% 2 01.01.2027 -
Juergen Elitím Bohemians 1905 Ativo 115 / 125 40% 3 01.01.2027 -
Christian Krasnodar Ativo 128 / 133 40% 1 30.12.2026 -
Víctor Ríos Atlas Ativo 111 / 109 40% 1 26.12.2026 -
Aarón Molinas Defensa y Justicia Ativo 129 / 135 40% 2 25.12.2026 -
Joaquín Gho Argentinos Juniors Ativo 126 / 133 40% 3 25.12.2026 -
Aimé Omgba KAA Gent Ativo 131 / 127 40% 1 25.12.2026 -
Cian Ashford Cardiff City Ativo 120 / 114 40% 1 23.12.2026 -
Ramiro Ruiz Rodríguez Atlético Tucumán Ativo 117 / 120 40% 10 22.12.2026 -
Jack Diamond Stockport County Ativo 127 / 106 40% 1 21.12.2026 -
Williams Manyama SuperSport United Ativo 119 / 114 40% 1 02.12.2026 -
Rodrigo Bogarín Barracas Central Ativo 116 / 111 40% 2 28.11.2026 -
Jhonatan Candia Barracas Central Ativo 121 / 114 40% 4 28.11.2026 -
Luciano Gondou CSKA Moscow Ativo 139 / 127 40% 1 28.11.2026 -
Lorent Tolaj Plymouth Argyle Ativo 112 / 121 40% 1 28.11.2026 -
Matías Zaracho Racing Club Ativo 121 / 135 40% 1 28.11.2026 -
Marcelino Moreno Lanús Ativo 129 / 135 40% 1 27.11.2026 -
Felipe Peña Biafore Lanús Ativo 122 / 135 40% 1 27.11.2026 -
Gustavo Del Prete San Lorenzo Ativo 117 / 126 40% 3 26.11.2026 -
Ammar Ramadan DAC Dunajska Streda Ativo 128 / 133 40% 1 26.11.2026 -
Moussa Dembélé CR Belouizdad Ativo 137 / 120 40% 1 26.11.2026 -
Bamba Dieng Crvena Zvezda Ativo 137 / 116 40% 1 23.11.2026 -
Manfred Ugalde Spartak Moscow Ativo 138 / 122 40% 1 23.11.2026 -
Edwuin Cetré Estudiantes Ativo 123 / 126 40% 1 22.11.2026 -
Diego Rossi Monterrey Ativo 140 / 143 40% 10 21.11.2026 -
Alexis Cuello San Lorenzo Ativo 122 / 131 40% 3 19.11.2026 -
Efraín Álvarez Guadalajara Ativo 133 / 137 40% 4 18.11.2026 -
Antony Alonso Deportivo Riestra Ativo 126 / 130 40% 3 17.11.2026 -
Mourad Tijuana Ativo 123 / 114 40% 3 16.11.2026 -
Francisco González Metilli Belgrano Ativo 123 / 118 40% 2 16.11.2026 -
Adonis Preciado Tijuana Ativo 123 / 116 40% 1 16.11.2026 -
Ozziel Herrera Tigres Ativo 129 / 123 40% 6 14.11.2026 -
Tomás González Piast Ativo 121 / 114 40% 1 14.11.2026 -
Brian Rodríguez Club America Ativo 124 / 130 40% 1 13.11.2026 -
Alejandro Zendejas Club America Ativo 136 / 133 40% 2 10.11.2026 -
Jordi Cortizo Leon Ativo 123 / 123 40% 2 10.11.2026 -
Jesús Ricardo Angulo Toluca Ativo 134 / 134 40% 1 10.11.2026 -
Alejandro Melo Cibalia Ativo 119 / 119 40% 1 10.11.2026 -
Nicolás Cordero Aldosivi Ativo 118 / 111 40% 2 09.11.2026 -
Ricardo Marín Guadalajara Ativo 121 / 117 40% 4 07.11.2026 -
Matko Miljevic Racing Club Ativo 123 / 137 40% 2 07.11.2026 -
Carlos Rodríguez Cruz Azul Ativo 131 / 133 40% 1 07.11.2026 -
Tomás Conechny Racing Club Ativo 129 / 132 40% 2 05.11.2026 -
Yousef Salech Cardiff City Ativo 116 / 117 40% 1 05.11.2026 -
Nicolás Castro Toluca Ativo 125 / 134 40% 1 04.11.2026 -
Adalberto Carrasquilla Pumas UNAM Ativo 129 / 133 40% 2 03.11.2026 -
Ezequiel Bullaude Santos Laguna Ativo 125 / 128 40% 1 03.11.2026 -
Santiago Rodríguez Gimnasia y Esgrima Ativo 124 / 122 40% 2 01.11.2026 -
Ulises Sánchez Gimnasia y Esgrima Ativo 129 / 131 40% 1 01.11.2026 -
Orbelín Pineda Monterrey Ativo 145 / 138 40% 1 01.11.2026 -
Rodrigo Echeverría Leon Ativo 128 / 133 40% 1 30.10.2026 -
Adnan Courtois KV Oostende Ativo 137 / 120 40% 2 28.10.2026 -
Enzo Copetti Rosario Central Ativo 128 / 124 40% 1 27.10.2026 -
Agustín Módica Gimnasia y Esgrima Ativo 118 / 129 40% 3 25.10.2026 -
Marcelo Estigarribia Unión de Santa Fe Ativo 121 / 125 40% 3 24.10.2026 -
Luca Martínez Dupuy Godoy Cruz Ativo 119 / 119 40% 1 23.10.2026 -
Bénie Traoré New York City Ativo 127 / 116 40% 4 22.10.2026 -
Santiago Montiel Independiente Ativo 128 / 120 40% 3 22.10.2026 -
Luís Esteves Atlas Ativo 125 / 121 40% 1 22.10.2026 -
Emanuel Coronel Rosario Central Ativo 130 / 134 40% 1 22.10.2026 -
Brian Gutiérrez Guadalajara Ativo 133 / 132 40% 1 22.10.2026 -
Gonzalo Ríos Independiente Rivadavia Ativo 115 / 128 40% 1 15.10.2026 -
Jaminton Campaz Rosario Central Ativo 131 / 130 40% 1 13.10.2026 -
Mauro Valiente Estudiantes Ativo 108 / 107 40% 1 12.10.2026 -
Tomás Molina Argentinos Juniors Ativo 129 / 120 40% 2 10.10.2026 -
Martín Ortega Newell's Old Boys Ativo 122 / 113 40% 1 10.10.2026 -
Juan Rocca Gimnasia y Tiro Ativo 106 / 104 40% 1 10.10.2026 -
David Barbona Defensa y Justicia Ativo 120 / 113 40% 1 10.10.2026 -
Ismael Díaz Leon Ativo 127 / 119 40% 4 09.10.2026 -
Rodrigo González Mitre Ativo 110 / 109 40% 1 08.10.2026 -
Alexander Díaz Deportivo Riestra Ativo 123 / 119 40% 1 02.10.2026 -
Ignacio Ramírez Newell's Old Boys Ativo 119 / 125 40% 1 01.10.2026 -
Gabriel Jesus Barcelona Ativo 150 / 157 40% 3 29.09.2026 -
Leandro Suhr Boston River Ativo 121 / 118 40% 1 29.09.2026 -
Luciano Cosentino Wanderers Ativo 117 / 112 40% 4 27.09.2026 -
Juninho Pumas UNAM Ativo 129 / 137 40% 4 26.09.2026 -
Hugo Cuypers Monterrey Ativo 131 / 123 40% 4 23.09.2026 -
Dejan Joveljić Seattle Sounders Ativo 124 / 134 40% 1 23.09.2026 -
Diego Gaitán Maipú Ativo 113 / 105 40% 1 23.09.2026 -
Leandro Lozano Boca Juniors Ativo 127 / 129 40% 1 23.09.2026 -
Alejo Cruz Juventud Ativo 124 / 127 40% 1 21.09.2026 -
Siro Rosané Estudiantes Ativo 117 / 121 40% 1 19.09.2026 -
Nazareno Colombo Racing Club Ativo 124 / 130 40% 1 19.09.2026 -
Tomás Escalante Plaza Colonia Ativo 122 / 118 40% 1 19.09.2026 -
Facundo Batista Penarol Ativo 117 / 117 40% 1 17.09.2026 -
Agustín Paz Progreso Ativo 112 / 115 40% 1 17.09.2026 -
Wessam Abou Ali Columbus Crew Ativo 131 / 126 40% 1 17.09.2026 -
Duncan McGuire Houston Dynamo Ativo 130 / 129 40% 4 15.09.2026 -
Josh Sargent Toronto FC Ativo 129 / 134 40% 2 13.09.2026 -
Louis Munteanu DC United Ativo 130 / 119 40% 2 12.09.2026 -
Manuel Ospina Cortulua Ativo 120 / 122 40% 1 09.09.2026 -
Kévin Denkey FC Cincinnati Ativo 128 / 136 40% 2 06.09.2026 -
Jordan Morris Seattle Sounders Ativo 125 / 133 40% 1 04.09.2026 -
Cheikh Sabaly Vancouver Whitecaps Ativo 118 / 127 40% 1 03.09.2026 -
Breel Embolo Atlanta United FC Ativo 134 / 144 40% 1 03.09.2026 -
Theo Corbeanu Toronto FC Ativo 118 / 117 40% 1 28.08.2026 -
Jorge Rivaldo Tigres Ativo 117 / 120 30% 1 / 1m 26.08.2026 -
Marcus Ingvartsen San Diego Football Club Ativo 128 / 127 40% 2 23.08.2026 -
Federico Girotti Alianza Lima Ativo 122 / 114 40% 3 19.08.2026 -
Jesus Ferreira Seattle Sounders Ativo 124 / 129 40% 1 15.08.2026 -
Harold Santiago Mosquera Cerro Porteno Ativo 121 / 123 40% 1 14.08.2026 -
Juan Diego Jaramillo Depor Ativo 102 / 102 30% 1 / 1m 12.08.2026 -
Juan Diego Mendoza Real Santander Ativo 80 / 85 30% 1 / 1m 12.08.2026 -
João Klauss LA Galaxy Ativo 120 / 132 40% 1 09.08.2026 -
Rodrigo Aguirre Tigres Ativo 125 / 129 40% 1 07.08.2026 -
Lucas Souto Defensa y Justicia Ativo 124 / 115 40% 1 07.08.2026 -
Ricardo Chávez Monterrey Ativo 132 / 124 40% 1 07.08.2026 -
Federico Ricca Belgrano Ativo 123 / 127 40% 1 07.08.2026 -
Matías Espinoza Libertad Ativo 120 / 114 40% 1 06.08.2026 -
Salvador Reyes Leon Ativo 122 / 121 40% 1 06.08.2026 -
Sam Surridge Nashville SC Ativo 128 / 132 40% 1 05.08.2026 -
Álvaro Angulo Pumas UNAM Ativo 125 / 115 40% 1 03.08.2026 -
Jhohan Romaña Leon Ativo 127 / 127 40% 1 03.08.2026 -
Alejo Miro Patronato Ativo 93 / 92 40% 1 02.08.2026 -
Urko Izeta Cádiz Ativo 136 / 134 40% 1 01.08.2026 -
Eryc Castillo Alianza Lima Ativo 114 / 120 40% 1 01.08.2026 -